createdAt,value
2023-02-01T00:02:23.116Z,29.24
2023-02-01T00:04:51.126Z,29.28
2023-02-01T00:07:18.981Z,29.23
2023-02-01T00:09:46.888Z,28.87
2023-02-01T00:12:15.299Z,29.22
2023-02-01T00:14:43.167Z,29.18
2023-02-01T00:17:10.997Z,29.29
2023-02-01T00:19:38.864Z,29.14
2023-02-01T00:22:06.735Z,29.15
2023-02-01T00:24:34.663Z,29.42
2023-02-01T00:27:02.576Z,28.84
2023-02-01T00:29:30.452Z,29.27
2023-02-01T00:31:58.383Z,29.59
2023-02-01T00:34:26.259Z,29.24
2023-02-01T00:36:54.149Z,29.06
2023-02-01T00:39:22.077Z,29.25
2023-02-01T00:41:50.005Z,29.26
2023-02-01T00:44:17.996Z,29.04
2023-02-01T00:46:45.927Z,29.60
2023-02-01T00:49:13.967Z,29.58
2023-02-01T00:51:41.838Z,29.63
2023-02-01T00:54:09.778Z,29.38
2023-02-01T00:56:37.741Z,29.13
2023-02-01T00:59:05.598Z,29.16
2023-02-01T01:01:33.540Z,29.10
2023-02-01T01:04:01.460Z,29.93
2023-02-01T01:06:29.369Z,29.45
2023-02-01T01:08:57.288Z,29.73
2023-02-01T01:11:25.170Z,29.71
2023-02-01T01:13:53.145Z,29.76
2023-02-01T01:16:21.125Z,29.56
2023-02-01T01:18:49.085Z,29.45
2023-02-01T01:21:17.026Z,29.32
2023-02-01T01:23:44.876Z,29.71
2023-02-01T01:26:12.800Z,29.76
2023-02-01T01:28:40.699Z,29.62
2023-02-01T01:31:08.600Z,29.43
2023-02-01T01:33:36.542Z,29.58
2023-02-01T01:36:04.422Z,29.14
2023-02-01T01:38:32.287Z,29.83
2023-02-01T01:41:00.196Z,29.63
2023-02-01T01:43:28.030Z,29.77
2023-02-01T01:45:55.948Z,29.54
2023-02-01T01:48:23.764Z,29.86
2023-02-01T01:50:51.643Z,29.47
2023-02-01T01:53:19.518Z,29.63
2023-02-01T01:55:47.432Z,29.54
2023-02-01T01:58:15.337Z,29.21
2023-02-01T02:00:43.260Z,29.83
2023-02-01T02:03:11.142Z,29.52
2023-02-01T02:05:38.982Z,29.62
2023-02-01T02:08:06.863Z,29.45
2023-02-01T02:11:06.655Z,29.90
2023-02-01T02:13:34.527Z,29.83
2023-02-01T02:16:02.448Z,29.54
2023-02-01T02:18:30.356Z,29.69
2023-02-01T02:20:58.197Z,29.66
2023-02-01T02:23:27.870Z,30.21
2023-02-01T02:25:55.778Z,29.45
2023-02-01T02:28:23.693Z,29.22
2023-02-01T02:30:51.642Z,29.76
2023-02-01T02:33:19.669Z,29.84
2023-02-01T02:35:48.228Z,29.78
2023-02-01T02:38:16.117Z,29.87
2023-02-01T02:40:44.068Z,29.81
2023-02-01T02:43:29.437Z,30.17
2023-02-01T02:46:14.767Z,29.74
2023-02-01T02:48:43.186Z,29.87
2023-02-01T02:51:28.420Z,29.81
2023-02-01T02:54:10.059Z,29.74
2023-02-01T02:56:55.248Z,29.74
2023-02-01T02:59:40.690Z,29.80
2023-02-01T03:02:26.225Z,30.05
2023-02-01T03:04:57.327Z,30.19
2023-02-01T03:07:25.313Z,29.80
2023-02-01T03:09:53.238Z,30.18
2023-02-01T03:12:38.412Z,29.58
2023-02-01T03:15:06.761Z,29.93
2023-02-01T03:17:34.643Z,30.15
2023-02-01T03:20:02.596Z,29.89
2023-02-01T03:22:32.757Z,30.02
2023-02-01T03:25:00.755Z,29.96
2023-02-01T03:27:28.751Z,30.07
2023-02-01T03:29:56.681Z,30.10
2023-02-01T03:32:24.578Z,29.71
2023-02-01T03:34:52.542Z,30.04
2023-02-01T03:37:20.409Z,29.99
2023-02-01T03:39:48.285Z,30.12
2023-02-01T03:42:16.192Z,29.90
2023-02-01T03:44:44.023Z,29.91
2023-02-01T03:47:11.973Z,30.26
2023-02-01T03:49:39.861Z,29.94
2023-02-01T03:52:08.410Z,30.08
2023-02-01T03:54:36.319Z,29.75
2023-02-01T03:57:04.256Z,29.93
2023-02-01T03:59:32.151Z,29.69
2023-02-01T04:02:00.173Z,30.03
2023-02-01T04:04:27.994Z,30.19
2023-02-01T04:06:55.819Z,29.87
2023-02-01T04:09:23.601Z,29.97
2023-02-01T04:11:51.346Z,29.99
2023-02-01T04:14:19.183Z,30.06
2023-02-01T04:16:46.991Z,30.21
2023-02-01T04:19:14.755Z,29.66
2023-02-01T04:21:42.529Z,30.44
2023-02-01T04:24:11.600Z,29.58
2023-02-01T04:26:39.478Z,29.89
2023-02-01T04:29:07.287Z,29.95
2023-02-01T04:31:36.787Z,30.09
2023-02-01T04:34:04.657Z,29.94
2023-02-01T04:36:32.466Z,30.07
2023-02-01T04:39:00.217Z,30.17
2023-02-01T04:41:28.042Z,29.99
2023-02-01T04:43:55.870Z,29.84
2023-02-01T04:46:23.781Z,29.88
2023-02-01T04:48:51.972Z,29.91
2023-02-01T04:51:19.845Z,29.90
2023-02-01T04:53:47.627Z,30.02
2023-02-01T04:56:15.446Z,29.70
2023-02-01T04:58:43.216Z,30.19
2023-02-01T05:01:11.045Z,29.90
2023-02-01T05:03:38.853Z,30.26
2023-02-01T05:06:07.001Z,29.99
2023-02-01T05:08:34.833Z,30.14
2023-02-01T05:11:04.715Z,30.05
2023-02-01T05:13:54.810Z,29.92
2023-02-01T05:16:22.653Z,30.12
2023-02-01T05:18:50.458Z,30.05
2023-02-01T05:21:18.450Z,29.87
2023-02-01T05:24:03.531Z,30.13
2023-02-01T05:26:31.408Z,29.90
2023-02-01T05:28:59.817Z,30.34
2023-02-01T05:31:27.680Z,30.27
2023-02-01T05:37:01.609Z,30.06
2023-02-01T05:39:29.502Z,29.99
2023-02-01T05:41:57.230Z,29.83
2023-02-01T05:44:25.073Z,30.22
2023-02-01T05:46:53.417Z,30.13
2023-02-01T05:52:02.963Z,30.15
2023-02-01T05:54:30.856Z,30.31
2023-02-01T05:56:58.692Z,30.28
2023-02-01T05:59:26.529Z,30.24
2023-02-01T06:01:54.472Z,30.27
2023-02-01T06:04:22.359Z,30.21
2023-02-01T06:06:51.755Z,30.15
2023-02-01T06:09:19.651Z,30.43
2023-02-01T06:11:47.561Z,30.43
2023-02-01T06:14:15.507Z,30.38
2023-02-01T06:16:43.398Z,30.45
2023-02-01T06:19:11.577Z,30.16
2023-02-01T06:21:39.505Z,30.11
2023-02-01T06:24:07.302Z,30.15
2023-02-01T06:26:35.295Z,30.18
2023-02-01T06:29:03.119Z,30.10
2023-02-01T06:31:33.172Z,30.21
2023-02-01T06:34:01.207Z,30.16
2023-02-01T06:36:29.103Z,30.37
2023-02-01T06:38:57.660Z,30.15
2023-02-01T06:41:29.234Z,30.39
2023-02-01T06:43:57.359Z,30.43
2023-02-01T06:46:25.461Z,30.04
2023-02-01T06:48:53.415Z,30.51
2023-02-01T06:51:21.344Z,30.23
2023-02-01T06:53:49.248Z,30.48
2023-02-01T06:56:17.173Z,30.56
2023-02-01T06:58:45.027Z,30.50
2023-02-01T07:01:13.132Z,30.73
2023-02-01T07:03:41.044Z,30.50
2023-02-01T07:06:09.212Z,30.67
2023-02-01T07:08:37.062Z,30.34
2023-02-01T07:11:04.950Z,30.50
2023-02-01T07:13:32.928Z,30.57
2023-02-01T07:16:00.917Z,30.57
2023-02-01T07:18:28.883Z,30.23
2023-02-01T07:20:56.853Z,30.13
2023-02-01T07:23:24.786Z,30.46
2023-02-01T07:25:52.693Z,30.65
2023-02-01T07:28:20.774Z,30.50
2023-02-01T07:30:52.111Z,30.30
2023-02-01T07:33:20.069Z,30.20
2023-02-01T07:35:47.970Z,30.48
2023-02-01T07:38:15.891Z,30.53
2023-02-01T07:40:43.739Z,30.23
2023-02-01T07:43:11.705Z,29.93
2023-02-01T07:45:39.674Z,30.14
2023-02-01T07:48:08.500Z,30.15
2023-02-01T07:50:36.403Z,30.37
2023-02-01T07:53:04.359Z,30.36
2023-02-01T07:55:32.330Z,30.05
2023-02-01T07:58:00.512Z,30.04
2023-02-01T08:00:45.967Z,30.35
2023-02-01T08:03:15.106Z,30.30
2023-02-01T08:05:44.155Z,30.35
2023-02-01T08:08:12.039Z,30.34
2023-02-01T08:10:39.969Z,30.07
2023-02-01T08:13:08.373Z,30.26
2023-02-01T08:15:36.249Z,30.00
2023-02-01T08:18:04.510Z,30.51
2023-02-01T08:20:32.464Z,30.49
2023-02-01T08:23:00.403Z,30.21
2023-02-01T08:25:28.691Z,30.32
2023-02-01T08:27:56.608Z,30.46
2023-02-01T08:30:24.799Z,30.25
2023-02-01T08:32:52.816Z,30.30
2023-02-01T08:35:22.288Z,30.05
2023-02-01T08:37:51.635Z,30.32
2023-02-01T08:40:20.340Z,30.30
2023-02-01T08:42:54.874Z,30.17
2023-02-01T08:45:22.766Z,30.39
2023-02-01T08:47:50.635Z,30.33
2023-02-01T08:50:18.571Z,30.47
2023-02-01T08:52:46.465Z,30.37
2023-02-01T08:55:14.427Z,30.50
2023-02-01T08:57:42.346Z,30.20
2023-02-01T09:00:10.935Z,30.57
2023-02-01T09:02:38.839Z,30.19
2023-02-01T09:05:07.136Z,30.56
2023-02-01T09:07:35.172Z,30.43
2023-02-01T09:10:03.017Z,30.66
2023-02-01T09:12:30.933Z,30.78
2023-02-01T09:15:00.505Z,30.61
2023-02-01T09:19:57.371Z,30.27
2023-02-01T09:22:25.374Z,30.45
2023-02-01T09:24:54.254Z,30.48
2023-02-01T09:27:23.041Z,30.75
2023-02-01T09:29:53.906Z,30.42
2023-02-01T09:32:21.903Z,30.27
2023-02-01T09:34:49.808Z,30.43
2023-02-01T09:37:17.737Z,30.66
2023-02-01T09:39:45.681Z,30.62
2023-02-01T09:42:13.544Z,30.42
2023-02-01T09:44:44.257Z,30.62
2023-02-01T09:47:12.559Z,30.44
2023-02-01T09:49:43.718Z,30.28
2023-02-01T09:52:11.648Z,30.72
2023-02-01T09:54:39.537Z,30.54
2023-02-01T09:57:07.455Z,30.47
2023-02-01T09:59:35.354Z,30.30
2023-02-01T10:02:03.361Z,30.36
2023-02-01T10:04:31.290Z,30.58
2023-02-01T10:06:59.212Z,30.55
2023-02-01T10:09:31.875Z,30.22
2023-02-01T10:11:59.734Z,30.09
2023-02-01T10:14:27.670Z,30.39
2023-02-01T10:16:55.874Z,30.43
2023-02-01T10:19:23.843Z,30.08
2023-02-01T10:21:51.689Z,30.05
2023-02-01T10:24:19.622Z,30.36
2023-02-01T10:26:47.630Z,30.35
2023-02-01T10:29:15.524Z,30.24
2023-02-01T10:31:43.577Z,30.33
2023-02-01T10:34:13.821Z,30.70
2023-02-01T10:36:41.688Z,29.97
2023-02-01T10:39:10.931Z,30.18
2023-02-01T10:41:40.218Z,30.32
2023-02-01T10:44:08.199Z,30.10
2023-02-01T10:46:36.166Z,30.24
2023-02-01T10:49:04.086Z,30.41
2023-02-01T10:51:32.133Z,30.53
2023-02-01T10:54:00.098Z,30.40
2023-02-01T10:56:28.058Z,30.17
2023-02-01T10:58:58.949Z,30.33
2023-02-01T11:01:26.927Z,30.55
2023-02-01T11:03:54.878Z,30.33
2023-02-01T11:06:22.793Z,30.28
2023-02-01T11:08:50.695Z,30.65
2023-02-01T11:11:19.499Z,30.57
2023-02-01T11:13:48.290Z,30.75
2023-02-01T11:16:16.797Z,30.32
2023-02-01T11:18:44.760Z,30.54
2023-02-01T11:21:12.623Z,30.42
2023-02-01T11:23:40.522Z,30.52
2023-02-01T11:26:08.471Z,30.77
2023-02-01T11:28:36.395Z,30.71
2023-02-01T11:31:04.586Z,30.24
2023-02-01T11:33:35.111Z,30.47
2023-02-01T11:36:03.155Z,30.46
2023-02-01T11:38:31.378Z,30.53
2023-02-01T11:40:59.351Z,30.45
2023-02-01T11:43:27.262Z,30.99
2023-02-01T11:45:55.252Z,30.83
2023-02-01T11:48:26.786Z,30.51
2023-02-01T11:50:55.306Z,30.59
2023-02-01T11:53:23.220Z,30.78
2023-02-01T11:55:51.125Z,30.30
2023-02-01T11:58:19.055Z,30.52
2023-02-01T12:00:46.975Z,30.89
2023-02-01T12:03:14.927Z,30.40
2023-02-01T12:05:42.880Z,30.74
2023-02-01T12:08:10.738Z,30.89
2023-02-01T12:10:38.651Z,30.58
2023-02-01T12:13:07.481Z,30.69
2023-02-01T12:15:35.324Z,31.12
2023-02-01T12:18:03.368Z,30.76
2023-02-01T12:20:33.645Z,30.65
2023-02-01T12:23:01.511Z,31.27
2023-02-01T12:25:29.474Z,30.70
2023-02-01T12:27:57.534Z,30.68
2023-02-01T12:30:25.980Z,30.99
2023-02-01T12:32:53.970Z,30.94
2023-02-01T12:35:21.803Z,30.88
2023-02-01T12:37:55.802Z,30.54
2023-02-01T12:40:23.982Z,30.91
2023-02-01T12:42:52.040Z,30.48
2023-02-01T12:45:19.987Z,31.00
2023-02-01T12:47:47.920Z,30.77
2023-02-01T12:50:16.266Z,30.93
2023-02-01T12:52:44.126Z,30.79
2023-02-01T12:55:12.001Z,30.64
2023-02-01T12:57:39.941Z,30.75
2023-02-01T13:00:07.963Z,31.31
2023-02-01T13:02:37.512Z,30.76
2023-02-01T13:05:05.397Z,30.83
2023-02-01T13:07:33.215Z,31.03
2023-02-01T13:10:01.298Z,30.87
2023-02-01T13:12:29.132Z,30.83
2023-02-01T13:14:57.045Z,30.80
2023-02-01T13:17:25.745Z,30.66
2023-02-01T13:19:53.645Z,30.99
2023-02-01T13:22:21.517Z,30.67
2023-02-01T13:24:49.456Z,30.88
2023-02-01T13:27:17.341Z,30.59
2023-02-01T13:29:45.393Z,31.17
2023-02-01T13:32:18.505Z,30.62
2023-02-01T13:34:46.581Z,30.69
2023-02-01T13:37:14.738Z,30.45
2023-02-01T13:39:43.407Z,31.19
2023-02-01T13:42:11.258Z,30.71
2023-02-01T13:44:39.069Z,30.89
2023-02-01T13:47:07.035Z,31.00
2023-02-01T13:49:34.907Z,30.55
2023-02-01T13:52:02.783Z,30.56
2023-02-01T13:54:30.645Z,30.88
2023-02-01T13:57:00.135Z,30.52
2023-02-01T13:59:27.973Z,30.52
2023-02-01T14:01:55.848Z,30.80
2023-02-01T14:04:23.726Z,30.88
2023-02-01T14:06:51.606Z,31.10
2023-02-01T14:09:20.172Z,31.03
2023-02-01T14:11:48.138Z,31.20
2023-02-01T14:14:15.977Z,30.77
2023-02-01T14:16:43.923Z,30.90
2023-02-01T14:19:11.920Z,30.68
2023-02-01T14:21:39.846Z,30.92
2023-02-01T14:24:07.778Z,30.35
2023-02-01T14:26:35.861Z,30.71
2023-02-01T14:29:03.892Z,30.65
2023-02-01T14:31:32.492Z,30.75
2023-02-01T14:34:00.472Z,30.47
2023-02-01T14:36:30.902Z,30.87
2023-02-01T14:38:58.789Z,31.05
2023-02-01T14:41:26.852Z,31.14
2023-02-01T14:43:54.773Z,30.89
2023-02-01T14:46:22.712Z,26.67
2023-02-01T14:48:50.576Z,18.10
2023-02-01T14:51:18.469Z,13.58
2023-02-01T14:53:47.792Z,11.51
2023-02-01T14:56:15.711Z,9.71
2023-02-01T14:58:43.644Z,9.13
2023-02-01T15:01:11.616Z,8.32
2023-02-01T15:03:39.473Z,7.94
2023-02-01T15:06:08.057Z,7.91
2023-02-01T15:08:35.952Z,7.34
2023-02-01T15:11:03.884Z,7.56
2023-02-01T15:13:31.774Z,7.08
2023-02-01T15:15:59.689Z,6.49
2023-02-01T15:18:27.574Z,6.71
2023-02-01T15:21:09.647Z,6.67
2023-02-01T15:23:43.637Z,6.73
2023-02-01T15:26:11.890Z,6.98
2023-02-01T15:28:39.751Z,6.55
2023-02-01T15:31:07.739Z,6.38
2023-02-01T15:33:35.663Z,7.14
2023-02-01T15:36:03.630Z,7.53
2023-02-01T15:38:31.805Z,8.02
2023-02-01T15:40:59.717Z,8.95
2023-02-01T15:43:27.884Z,9.70
2023-02-01T15:45:56.596Z,10.54
2023-02-01T15:48:24.506Z,11.28
2023-02-01T15:50:52.467Z,12.06
2023-02-01T15:53:20.336Z,12.73
2023-02-01T15:55:48.866Z,13.27
2023-02-01T15:58:16.731Z,13.67
2023-02-01T16:00:44.593Z,14.40
2023-02-01T16:03:12.486Z,15.46
2023-02-01T16:05:40.967Z,16.25
2023-02-01T16:08:09.271Z,16.23
2023-02-01T16:10:37.219Z,14.97
2023-02-01T16:13:05.127Z,12.44
2023-02-01T16:15:32.973Z,11.29
2023-02-01T16:18:00.863Z,10.27
2023-02-01T16:20:28.900Z,9.82
2023-02-01T16:22:56.732Z,9.01
2023-02-01T16:25:24.931Z,8.28
2023-02-01T16:27:53.037Z,7.98
2023-02-01T16:30:24.155Z,7.38
2023-02-01T16:32:52.127Z,7.06
2023-02-01T16:35:20.786Z,6.61
2023-02-01T16:37:48.798Z,6.79
2023-02-01T16:40:16.704Z,6.18
2023-02-01T16:42:44.609Z,6.46
2023-02-01T16:45:12.471Z,6.12
2023-02-01T16:47:41.740Z,6.35
2023-02-01T16:50:21.597Z,6.32
2023-02-01T16:52:50.872Z,7.02
2023-02-01T16:55:18.742Z,7.67
2023-02-01T16:57:46.608Z,8.39
2023-02-01T17:00:23.910Z,9.23
2023-02-01T17:02:52.672Z,9.68
2023-02-01T17:05:20.613Z,10.72
2023-02-01T17:07:48.535Z,11.57
2023-02-01T17:10:18.931Z,12.58
2023-02-01T17:12:49.326Z,13.36
2023-02-01T17:15:17.197Z,13.92
2023-02-01T17:17:45.887Z,14.71
2023-02-01T17:20:13.738Z,15.58
2023-02-01T17:22:41.648Z,15.87
2023-02-01T17:25:09.596Z,16.78
2023-02-01T17:27:38.846Z,17.42
2023-02-01T17:30:07.088Z,17.93
2023-02-01T17:32:35.095Z,18.68
2023-02-01T17:35:03.023Z,19.06
2023-02-01T17:37:30.876Z,19.70
2023-02-01T17:39:58.846Z,20.65
2023-02-01T17:42:26.688Z,21.09
2023-02-01T17:44:55.634Z,21.65
2023-02-01T17:47:23.848Z,21.86
2023-02-01T17:49:56.669Z,22.44
2023-02-01T17:52:24.958Z,23.19
2023-02-01T17:54:54.282Z,23.02
2023-02-01T17:57:22.390Z,22.47
2023-02-01T17:59:50.291Z,18.71
2023-02-01T18:02:18.364Z,13.03
2023-02-01T18:04:46.288Z,10.33
2023-02-01T18:07:14.188Z,9.19
2023-02-01T18:09:42.572Z,8.79
2023-02-01T18:12:10.429Z,8.35
2023-02-01T18:14:38.385Z,7.28
2023-02-01T18:17:06.488Z,6.49
2023-02-01T18:19:35.128Z,6.34
2023-02-01T18:22:03.268Z,5.69
2023-02-01T18:24:33.659Z,5.57
2023-02-01T18:27:02.111Z,5.85
2023-02-01T18:29:30.078Z,5.92
2023-02-01T18:31:58.007Z,6.75
2023-02-01T18:34:27.379Z,7.23
2023-02-01T18:36:55.318Z,7.91
2023-02-01T18:39:23.613Z,8.93
2023-02-01T18:41:52.362Z,9.64
2023-02-01T18:44:20.265Z,10.17
2023-02-01T18:46:48.212Z,11.13
2023-02-01T18:49:18.223Z,11.98
2023-02-01T18:51:46.852Z,12.48
2023-02-01T18:54:14.718Z,13.37
2023-02-01T18:56:43.338Z,13.90
2023-02-01T18:59:11.905Z,15.41
2023-02-01T19:01:40.014Z,15.53
2023-02-01T19:04:09.181Z,16.25
2023-02-01T19:06:43.068Z,17.07
2023-02-01T19:09:11.061Z,18.09
2023-02-01T19:11:39.145Z,18.12
2023-02-01T19:14:07.203Z,19.12
2023-02-01T19:16:39.863Z,18.95
2023-02-01T19:19:07.882Z,20.03
2023-02-01T19:21:35.822Z,20.32
2023-02-01T19:24:03.945Z,20.86
2023-02-01T19:26:31.897Z,21.66
2023-02-01T19:28:59.883Z,21.86
2023-02-01T19:31:27.854Z,21.99
2023-02-01T19:33:56.006Z,22.80
2023-02-01T19:36:23.956Z,23.67
2023-02-01T19:38:52.159Z,23.84
2023-02-01T19:41:20.039Z,24.48
2023-02-01T19:43:48.064Z,24.67
2023-02-01T19:46:16.017Z,25.07
2023-02-01T19:48:43.858Z,25.12
2023-02-01T19:51:12.925Z,25.91
2023-02-01T19:53:40.967Z,25.98
2023-02-01T19:56:09.275Z,25.87
2023-02-01T19:58:37.156Z,25.86
2023-02-01T20:01:06.283Z,26.10
2023-02-01T20:03:34.185Z,26.15
2023-02-01T20:06:02.081Z,25.67
2023-02-01T20:08:29.896Z,26.11
2023-02-01T20:10:58.244Z,26.32
2023-02-01T20:13:26.667Z,26.26
2023-02-01T20:15:54.596Z,26.41
2023-02-01T20:18:22.458Z,26.63
2023-02-01T20:20:50.428Z,26.62
2023-02-01T20:23:19.296Z,26.85
2023-02-01T20:25:48.320Z,26.75
2023-02-01T20:28:16.203Z,26.99
2023-02-01T20:30:44.412Z,27.35
2023-02-01T20:33:12.317Z,27.26
2023-02-01T20:35:40.212Z,27.58
2023-02-01T20:38:08.640Z,27.33
2023-02-01T20:40:36.526Z,27.45
2023-02-01T20:43:04.424Z,27.61
2023-02-01T20:45:32.375Z,27.85
2023-02-01T20:48:00.268Z,27.85
2023-02-01T20:50:28.246Z,27.96
2023-02-01T20:52:56.207Z,27.65
2023-02-01T20:55:25.373Z,27.95
2023-02-01T20:57:53.707Z,28.17
2023-02-01T21:00:22.673Z,28.18
2023-02-01T21:02:50.519Z,28.17
2023-02-01T21:05:18.345Z,28.14
2023-02-01T21:07:46.220Z,27.99
2023-02-01T21:10:14.150Z,28.06
2023-02-01T21:12:42.080Z,28.20
2023-02-01T21:15:09.946Z,28.46
2023-02-01T21:17:39.437Z,28.31
2023-02-01T21:20:08.593Z,28.46
2023-02-01T21:22:36.429Z,28.58
2023-02-01T21:25:04.403Z,28.43
2023-02-01T21:27:32.314Z,28.46
2023-02-01T21:30:00.259Z,28.35
2023-02-01T21:32:28.123Z,28.22
2023-02-01T21:34:55.956Z,28.53
2023-02-01T21:37:25.771Z,28.53
2023-02-01T21:39:53.647Z,28.40
2023-02-01T21:42:23.958Z,28.38
2023-02-01T21:44:51.867Z,28.68
2023-02-01T21:47:21.323Z,28.82
2023-02-01T21:49:53.928Z,28.60
2023-02-01T21:52:22.100Z,28.69
2023-02-01T21:54:52.139Z,28.92
2023-02-01T21:57:20.074Z,28.72
2023-02-01T21:59:48.430Z,28.55
2023-02-01T22:02:17.031Z,29.42
2023-02-01T22:04:45.168Z,28.64
2023-02-01T22:07:13.386Z,29.01
2023-02-01T22:09:41.248Z,28.90
2023-02-01T22:12:09.329Z,28.52
2023-02-01T22:14:37.162Z,28.80
2023-02-01T22:17:05.291Z,29.21
2023-02-01T22:19:33.185Z,28.76
2023-02-01T22:22:01.053Z,29.03
2023-02-01T22:24:28.921Z,29.27
2023-02-01T22:26:56.755Z,28.92
2023-02-01T22:29:42.363Z,29.23
2023-02-01T22:32:10.322Z,29.07
2023-02-01T22:34:39.182Z,28.95
2023-02-01T22:37:07.245Z,29.06
2023-02-01T22:39:35.103Z,29.12
2023-02-01T22:42:03.636Z,29.43
2023-02-01T22:44:31.571Z,29.53
2023-02-01T22:46:59.541Z,29.21
2023-02-01T22:49:27.448Z,29.64
2023-02-01T22:51:55.320Z,29.30
2023-02-01T22:54:23.203Z,29.41
2023-02-01T22:56:51.182Z,29.42
2023-02-01T22:59:19.060Z,29.32
2023-02-01T23:01:46.954Z,29.69
2023-02-01T23:04:14.868Z,29.57
2023-02-01T23:06:42.923Z,29.67
2023-02-01T23:09:12.343Z,29.45
2023-02-01T23:11:40.237Z,29.46
2023-02-01T23:14:08.077Z,29.34
2023-02-01T23:16:36.264Z,29.48
2023-02-01T23:19:04.149Z,29.71
2023-02-01T23:21:32.062Z,29.29
2023-02-01T23:23:59.919Z,29.41
2023-02-01T23:26:27.848Z,29.23
2023-02-01T23:28:55.899Z,29.75
2023-02-01T23:31:23.963Z,29.36
2023-02-01T23:33:54.984Z,29.67
2023-02-01T23:36:22.879Z,29.76
2023-02-01T23:38:50.843Z,29.57
2023-02-01T23:41:18.907Z,29.56
2023-02-01T23:43:58.907Z,29.85
2023-02-01T23:46:26.781Z,30.04
2023-02-01T23:48:54.892Z,29.87
2023-02-01T23:51:22.760Z,29.43
2023-02-01T23:53:50.623Z,29.50
2023-02-01T23:56:18.484Z,29.92
2023-02-01T23:58:46.336Z,29.81
